createdAt,value
2019-03-19T00:02:07.377Z,9.07
2019-03-19T00:04:36.727Z,9.07
2019-03-19T00:07:06.054Z,9.06
2019-03-19T00:09:35.404Z,9.06
2019-03-19T00:12:04.818Z,9.06
2019-03-19T00:14:34.145Z,9.06
2019-03-19T00:17:03.496Z,9.06
2019-03-19T00:19:32.812Z,9.06
2019-03-19T00:22:02.157Z,9.06
2019-03-19T00:24:31.485Z,9.05
2019-03-19T00:27:00.820Z,9.05
2019-03-19T00:29:30.126Z,9.04
2019-03-19T00:31:59.503Z,9.03
2019-03-19T00:34:28.959Z,9.04
2019-03-19T00:36:58.270Z,9.05
2019-03-19T00:39:27.685Z,9.03
2019-03-19T00:41:57.035Z,9.04
2019-03-19T00:44:26.367Z,9.03
2019-03-19T00:46:55.720Z,9.04
2019-03-19T00:49:25.079Z,9.05
2019-03-19T00:51:54.438Z,9.05
2019-03-19T00:54:23.765Z,9.06
2019-03-19T00:56:53.120Z,9.05
2019-03-19T00:59:22.448Z,9.06
2019-03-19T01:01:51.811Z,9.06
2019-03-19T01:04:21.265Z,9.06
2019-03-19T01:06:51.248Z,9.07
2019-03-19T01:09:20.614Z,9.07
2019-03-19T01:11:49.944Z,9.08
2019-03-19T01:14:19.260Z,9.07
2019-03-19T01:16:48.612Z,9.07
2019-03-19T01:19:18.010Z,9.07
2019-03-19T01:21:47.374Z,9.07
2019-03-19T01:24:16.699Z,9.07
2019-03-19T01:26:46.058Z,9.06
2019-03-19T01:29:15.392Z,9.07
2019-03-19T01:31:44.760Z,9.07
2019-03-19T01:34:14.113Z,9.06
2019-03-19T01:36:43.441Z,9.05
2019-03-19T01:39:12.801Z,9.05
2019-03-19T01:41:43.141Z,9.04
2019-03-19T01:44:14.281Z,9.03
2019-03-19T01:46:43.643Z,9.03
2019-03-19T01:49:13.017Z,9.03
2019-03-19T01:51:42.336Z,9.01
2019-03-19T01:54:11.673Z,9.03
2019-03-19T01:56:41.015Z,9.02
2019-03-19T01:59:10.351Z,9.00
2019-03-19T02:01:39.719Z,8.98
2019-03-19T02:04:09.065Z,8.98
2019-03-19T02:06:38.425Z,8.98
2019-03-19T02:09:09.847Z,8.98
2019-03-19T02:11:39.211Z,8.97
2019-03-19T02:14:08.551Z,8.96
2019-03-19T02:16:37.922Z,8.97
2019-03-19T02:19:07.275Z,8.96
2019-03-19T02:21:36.588Z,8.97
2019-03-19T02:24:05.882Z,8.96
2019-03-19T02:26:35.219Z,8.96
2019-03-19T02:29:04.526Z,8.96
2019-03-19T02:31:34.602Z,8.96
2019-03-19T02:34:03.957Z,8.96
2019-03-19T02:36:33.345Z,8.95
2019-03-19T02:39:02.668Z,8.95
2019-03-19T02:41:32.095Z,8.96
2019-03-19T02:44:01.442Z,8.96
2019-03-19T02:46:30.794Z,8.96
2019-03-19T02:49:00.160Z,8.95
2019-03-19T02:51:29.597Z,8.95
2019-03-19T02:53:58.920Z,8.95
2019-03-19T02:56:33.041Z,8.95
2019-03-19T02:58:59.318Z,8.96
2019-03-19T03:01:28.634Z,8.96
2019-03-19T03:03:57.974Z,8.96
2019-03-19T03:06:27.313Z,8.95
2019-03-19T03:08:56.691Z,8.95
2019-03-19T03:11:26.002Z,8.95
2019-03-19T03:13:55.304Z,8.96
2019-03-19T03:16:24.751Z,8.96
2019-03-19T03:18:54.055Z,8.96
2019-03-19T03:21:23.414Z,8.96
2019-03-19T03:23:52.777Z,8.96
2019-03-19T03:26:22.088Z,8.96
2019-03-19T03:28:51.503Z,8.96
2019-03-19T03:31:20.867Z,8.96
2019-03-19T03:33:50.149Z,8.95
2019-03-19T03:36:19.480Z,8.95
2019-03-19T03:38:48.814Z,8.95
2019-03-19T03:41:18.148Z,8.94
2019-03-19T03:43:47.489Z,8.95
2019-03-19T03:46:16.824Z,8.94
2019-03-19T03:48:46.140Z,8.94
2019-03-19T03:51:15.477Z,8.94
2019-03-19T03:53:44.801Z,8.94
2019-03-19T03:56:14.158Z,8.92
2019-03-19T03:58:43.475Z,8.94
2019-03-19T04:01:13.026Z,8.94
2019-03-19T04:03:42.544Z,8.94
2019-03-19T04:06:11.895Z,8.93
2019-03-19T04:08:41.251Z,8.92
2019-03-19T04:11:10.594Z,8.93
2019-03-19T04:13:41.400Z,8.94
2019-03-19T04:16:10.738Z,8.93
2019-03-19T04:18:41.864Z,8.93
2019-03-19T04:21:11.176Z,8.93
2019-03-19T04:23:42.101Z,8.94
2019-03-19T04:26:11.536Z,8.94
2019-03-19T04:28:40.869Z,8.95
2019-03-19T04:31:10.250Z,8.95
2019-03-19T04:33:39.590Z,8.93
2019-03-19T04:36:08.922Z,8.95
2019-03-19T04:38:38.279Z,8.95
2019-03-19T04:41:07.696Z,8.95
2019-03-19T04:43:37.137Z,8.96
2019-03-19T04:46:06.464Z,8.96
2019-03-19T04:48:35.828Z,8.96
2019-03-19T04:51:05.180Z,8.96
2019-03-19T04:53:34.523Z,8.95
2019-03-19T04:56:03.858Z,8.95
2019-03-19T04:58:33.174Z,8.96
2019-03-19T05:01:02.504Z,8.94
2019-03-19T05:03:31.841Z,8.94
2019-03-19T05:06:01.187Z,8.94
2019-03-19T05:08:30.529Z,8.94
2019-03-19T05:10:59.890Z,8.94
2019-03-19T05:13:29.213Z,8.93
2019-03-19T05:15:58.553Z,8.93
2019-03-19T05:18:27.883Z,8.94
2019-03-19T05:20:57.218Z,8.94
2019-03-19T05:23:26.526Z,8.95
2019-03-19T05:25:55.869Z,8.95
2019-03-19T05:28:25.208Z,8.95
2019-03-19T05:30:54.554Z,8.96
2019-03-19T05:33:23.906Z,8.97
2019-03-19T05:35:53.238Z,8.96
2019-03-19T05:38:22.577Z,8.96
2019-03-19T05:40:51.906Z,8.97
2019-03-19T05:43:21.262Z,8.98
2019-03-19T05:45:50.558Z,8.98
2019-03-19T05:48:19.912Z,8.98
2019-03-19T05:50:49.269Z,8.99
2019-03-19T05:53:18.615Z,8.98
2019-03-19T05:55:47.922Z,8.98
2019-03-19T05:58:17.246Z,8.98
2019-03-19T06:00:46.595Z,8.98
2019-03-19T06:03:17.094Z,8.97
2019-03-19T06:05:46.441Z,8.96
2019-03-19T06:08:15.821Z,8.97
2019-03-19T06:10:45.347Z,8.96
2019-03-19T06:13:14.685Z,8.96
2019-03-19T06:15:44.003Z,8.96
2019-03-19T06:18:13.336Z,8.95
2019-03-19T06:20:42.663Z,8.95
2019-03-19T06:23:12.006Z,8.95
2019-03-19T06:25:42.333Z,8.97
2019-03-19T06:28:11.854Z,8.96
2019-03-19T06:30:41.328Z,8.95
2019-03-19T06:33:10.664Z,8.96
2019-03-19T06:35:39.990Z,8.96
2019-03-19T06:38:09.296Z,8.97
2019-03-19T06:40:38.631Z,8.96
2019-03-19T06:43:07.945Z,8.96
2019-03-19T06:45:37.291Z,8.96
2019-03-19T06:48:06.605Z,8.96
2019-03-19T06:50:44.631Z,8.97
2019-03-19T06:53:07.008Z,8.98
2019-03-19T06:55:36.354Z,8.98
2019-03-19T06:58:10.846Z,8.99
2019-03-19T07:00:37.848Z,8.99
2019-03-19T07:03:07.182Z,9.00
2019-03-19T07:05:36.516Z,9.02
2019-03-19T07:08:05.963Z,9.03
2019-03-19T07:10:35.315Z,9.03
2019-03-19T07:13:04.663Z,9.05
2019-03-19T07:15:33.989Z,9.06
2019-03-19T07:18:03.334Z,9.07
2019-03-19T07:20:59.766Z,9.08
2019-03-19T07:23:29.322Z,9.09
2019-03-19T07:25:58.670Z,9.12
2019-03-19T07:28:28.023Z,9.13
2019-03-19T07:30:57.364Z,9.16
2019-03-19T07:33:26.683Z,9.17
2019-03-19T07:35:56.040Z,9.20
2019-03-19T07:38:25.346Z,9.23
2019-03-19T07:40:55.925Z,9.26
2019-03-19T07:43:25.427Z,9.28
2019-03-19T07:45:54.763Z,9.31
2019-03-19T07:48:25.116Z,9.33
2019-03-19T07:50:54.483Z,9.36
2019-03-19T07:53:23.816Z,9.38
2019-03-19T07:55:54.655Z,9.41
2019-03-19T07:58:35.752Z,9.45
2019-03-19T08:00:56.157Z,9.48
2019-03-19T08:03:25.560Z,9.51
2019-03-19T08:05:54.890Z,9.55
2019-03-19T08:08:24.283Z,9.57
2019-03-19T08:10:53.625Z,9.59
2019-03-19T08:13:22.953Z,9.61
2019-03-19T08:15:54.605Z,9.62
2019-03-19T08:18:23.950Z,9.63
2019-03-19T08:20:53.256Z,9.65
2019-03-19T08:23:22.604Z,9.67
2019-03-19T08:25:51.909Z,9.71
2019-03-19T08:28:21.239Z,9.74
2019-03-19T08:30:50.575Z,9.75
2019-03-19T08:33:20.935Z,9.78
2019-03-19T08:35:52.351Z,9.80
2019-03-19T08:38:21.678Z,9.83
2019-03-19T08:40:51.157Z,9.86
2019-03-19T08:43:20.518Z,9.89
2019-03-19T08:45:49.815Z,9.91
2019-03-19T08:48:19.166Z,9.95
2019-03-19T08:50:48.477Z,9.98
2019-03-19T08:53:20.204Z,10.03
2019-03-19T08:55:49.537Z,10.08
2019-03-19T08:58:18.865Z,10.11
2019-03-19T09:00:48.212Z,10.15
2019-03-19T09:03:17.530Z,10.19
2019-03-19T09:05:47.903Z,10.24
2019-03-19T09:08:17.248Z,10.29
2019-03-19T09:10:46.596Z,10.32
2019-03-19T09:13:15.946Z,10.37
2019-03-19T09:15:45.299Z,10.42
2019-03-19T09:18:16.120Z,10.47
2019-03-19T09:20:45.521Z,10.52
2019-03-19T09:23:14.876Z,10.54
2019-03-19T09:25:44.191Z,10.56
2019-03-19T09:28:13.514Z,10.56
2019-03-19T09:30:42.854Z,10.54
2019-03-19T09:33:12.272Z,10.57
2019-03-19T09:35:41.645Z,10.60
2019-03-19T09:38:10.977Z,10.61
2019-03-19T09:40:40.323Z,10.67
2019-03-19T09:43:09.671Z,10.72
2019-03-19T09:45:41.383Z,10.76
2019-03-19T09:48:10.770Z,10.83
2019-03-19T09:50:40.076Z,10.87
2019-03-19T09:53:09.462Z,10.94
2019-03-19T09:55:41.129Z,10.99
2019-03-19T09:58:11.513Z,11.03
2019-03-19T10:00:42.959Z,11.05
2019-03-19T10:03:12.312Z,11.07
2019-03-19T10:05:41.639Z,11.10
2019-03-19T10:08:11.002Z,11.12
2019-03-19T10:10:40.380Z,11.20
2019-03-19T10:13:09.789Z,11.28
2019-03-19T10:15:39.160Z,11.28
2019-03-19T10:18:08.489Z,11.33
2019-03-19T10:20:37.822Z,11.41
2019-03-19T10:23:07.180Z,11.43
2019-03-19T10:25:38.064Z,11.46
2019-03-19T10:28:07.560Z,11.48
2019-03-19T10:30:36.989Z,11.46
2019-03-19T10:33:06.368Z,11.46
2019-03-19T10:35:35.718Z,11.43
2019-03-19T10:38:05.484Z,11.43
2019-03-19T10:40:34.825Z,11.39
2019-03-19T10:43:04.187Z,11.38
2019-03-19T10:45:33.730Z,11.37
2019-03-19T10:48:03.156Z,11.33
2019-03-19T10:50:32.499Z,11.34
2019-03-19T10:53:01.839Z,11.36
2019-03-19T10:55:31.284Z,11.34
2019-03-19T10:58:10.648Z,11.35
2019-03-19T11:00:31.802Z,11.36
2019-03-19T11:03:01.138Z,11.39
2019-03-19T11:05:32.304Z,11.42
2019-03-19T11:08:01.633Z,11.43
2019-03-19T11:10:30.974Z,11.47
2019-03-19T11:13:00.359Z,11.48
2019-03-19T11:15:31.618Z,11.49
2019-03-19T11:18:00.783Z,11.47
2019-03-19T11:20:30.122Z,11.47
2019-03-19T11:23:02.277Z,11.48
2019-03-19T11:25:31.616Z,11.50
2019-03-19T11:28:01.066Z,11.52
2019-03-19T11:30:30.452Z,11.52
2019-03-19T11:32:59.851Z,11.47
2019-03-19T11:35:29.420Z,11.47
2019-03-19T11:37:58.874Z,11.47
2019-03-19T11:40:28.228Z,11.50
2019-03-19T11:42:57.562Z,11.56
2019-03-19T11:45:27.014Z,11.66
2019-03-19T11:47:57.411Z,11.72
2019-03-19T11:50:26.746Z,11.74
2019-03-19T11:52:57.944Z,11.81
2019-03-19T11:55:27.301Z,11.92
2019-03-19T11:57:57.755Z,12.00
2019-03-19T12:00:42.886Z,12.05
2019-03-19T12:03:16.137Z,12.05
2019-03-19T12:05:43.534Z,11.93
2019-03-19T12:08:12.899Z,12.00
2019-03-19T12:10:42.230Z,11.96
2019-03-19T12:13:11.623Z,11.92
2019-03-19T12:15:40.958Z,12.08
2019-03-19T12:18:12.045Z,12.08
2019-03-19T12:20:41.384Z,12.17
2019-03-19T12:23:10.748Z,12.23
2019-03-19T12:25:40.106Z,12.33
2019-03-19T12:28:10.472Z,12.39
2019-03-19T12:30:39.829Z,12.50
2019-03-19T12:33:09.151Z,12.65
2019-03-19T12:35:39.614Z,12.65
2019-03-19T12:38:08.951Z,12.65
2019-03-19T12:40:38.415Z,12.65
2019-03-19T12:43:08.024Z,12.69
2019-03-19T12:45:38.509Z,12.79
2019-03-19T12:48:07.858Z,12.79
2019-03-19T12:50:37.185Z,12.86
2019-03-19T12:53:06.543Z,12.91
2019-03-19T12:55:35.917Z,12.98
2019-03-19T12:58:05.618Z,12.98
2019-03-19T13:00:35.187Z,13.12
2019-03-19T13:03:05.296Z,13.14
2019-03-19T13:05:34.684Z,13.14
2019-03-19T13:08:04.059Z,13.33
2019-03-19T13:10:33.414Z,13.33
2019-03-19T13:13:03.039Z,13.30
2019-03-19T13:15:32.432Z,13.36
2019-03-19T13:18:02.807Z,13.36
2019-03-19T13:20:32.156Z,13.36
2019-03-19T13:23:01.509Z,13.38
2019-03-19T13:25:30.960Z,13.40
2019-03-19T13:28:00.323Z,13.45
2019-03-19T13:30:30.717Z,13.51
2019-03-19T13:33:00.086Z,13.55
2019-03-19T13:35:29.530Z,13.57
2019-03-19T13:38:00.705Z,13.59
2019-03-19T13:40:30.063Z,13.68
2019-03-19T13:43:00.592Z,13.64
2019-03-19T13:45:29.925Z,13.59
2019-03-19T13:47:59.389Z,13.75
2019-03-19T13:50:28.731Z,14.12
2019-03-19T13:53:18.505Z,14.19
2019-03-19T13:55:48.920Z,14.19
2019-03-19T13:58:18.254Z,14.11
2019-03-19T14:00:55.344Z,14.11
2019-03-19T14:03:18.675Z,14.03
2019-03-19T14:05:47.997Z,13.86
2019-03-19T14:08:18.070Z,13.74
2019-03-19T14:10:47.670Z,13.66
2019-03-19T14:13:17.030Z,13.52
2019-03-19T14:15:46.377Z,13.42
2019-03-19T14:18:15.742Z,13.34
2019-03-19T14:20:45.095Z,13.27
2019-03-19T14:23:14.473Z,13.22
2019-03-19T14:25:43.810Z,13.14
2019-03-19T14:28:13.172Z,13.07
2019-03-19T14:30:42.553Z,12.93
2019-03-19T14:33:11.868Z,12.93
2019-03-19T14:35:41.208Z,12.86
2019-03-19T14:38:10.589Z,12.81
2019-03-19T14:40:40.035Z,12.86
2019-03-19T14:43:09.436Z,12.92
2019-03-19T14:45:38.815Z,12.88
2019-03-19T14:48:08.145Z,12.83
2019-03-19T14:50:37.513Z,12.83
2019-03-19T14:53:06.965Z,12.87
2019-03-19T14:55:36.743Z,12.86
2019-03-19T14:58:06.302Z,12.86
2019-03-19T15:00:35.684Z,12.92
2019-03-19T15:03:05.050Z,13.04
2019-03-19T15:05:34.447Z,13.21
2019-03-19T15:08:03.777Z,13.36
2019-03-19T15:10:33.169Z,13.36
2019-03-19T15:13:02.573Z,13.67
2019-03-19T15:15:31.937Z,13.87
2019-03-19T15:18:01.281Z,14.20
2019-03-19T15:20:30.747Z,14.20
2019-03-19T15:23:00.159Z,14.15
2019-03-19T15:25:29.519Z,14.05
2019-03-19T15:27:58.847Z,13.92
2019-03-19T15:30:28.246Z,13.90
2019-03-19T15:32:57.582Z,13.89
2019-03-19T15:35:26.929Z,13.89
2019-03-19T15:37:56.296Z,13.96
2019-03-19T15:40:25.629Z,14.01
2019-03-19T15:42:54.967Z,14.05
2019-03-19T15:45:24.387Z,14.03
2019-03-19T15:47:53.709Z,13.92
2019-03-19T15:50:23.067Z,13.86
2019-03-19T15:52:52.379Z,13.79
2019-03-19T15:55:21.758Z,13.75
2019-03-19T15:57:51.102Z,13.71
2019-03-19T16:00:20.447Z,13.59
2019-03-19T16:02:49.799Z,13.54
2019-03-19T16:05:19.161Z,13.47
2019-03-19T16:07:48.512Z,13.33
2019-03-19T16:10:17.936Z,13.22
2019-03-19T16:12:47.299Z,13.21
2019-03-19T16:15:16.825Z,13.10
2019-03-19T16:17:46.157Z,13.04
2019-03-19T16:20:15.706Z,12.98
2019-03-19T16:22:45.076Z,12.92
2019-03-19T16:25:14.563Z,12.90
2019-03-19T16:27:43.935Z,12.90
2019-03-19T16:30:14.043Z,12.82
2019-03-19T16:32:43.512Z,12.77
2019-03-19T16:35:13.104Z,12.77
2019-03-19T16:37:42.547Z,12.77
2019-03-19T16:40:17.262Z,12.79
2019-03-19T16:42:46.752Z,12.71
2019-03-19T16:45:17.996Z,12.69
2019-03-19T16:47:47.403Z,12.69
2019-03-19T16:50:16.744Z,12.66
2019-03-19T16:52:46.412Z,12.63
2019-03-19T16:55:16.096Z,12.61
2019-03-19T16:57:45.437Z,12.58
2019-03-19T17:00:16.454Z,12.55
2019-03-19T17:02:45.789Z,12.50
2019-03-19T17:05:16.375Z,12.44
2019-03-19T17:07:45.673Z,12.41
2019-03-19T17:10:15.509Z,12.37
2019-03-19T17:12:44.866Z,12.32
2019-03-19T17:15:15.107Z,12.32
2019-03-19T17:17:44.511Z,12.33
2019-03-19T17:20:16.489Z,12.25
2019-03-19T17:22:45.949Z,12.22
2019-03-19T17:25:16.079Z,12.21
2019-03-19T17:27:45.440Z,12.18
2019-03-19T17:30:20.016Z,12.14
2019-03-19T17:32:49.327Z,12.09
2019-03-19T17:35:18.748Z,12.04
2019-03-19T17:37:48.031Z,12.04
2019-03-19T17:40:17.530Z,12.02
2019-03-19T17:42:46.894Z,11.99
2019-03-19T17:45:16.364Z,11.95
2019-03-19T17:47:45.817Z,11.91
2019-03-19T17:50:17.013Z,11.88
2019-03-19T17:52:46.587Z,11.84
2019-03-19T17:55:15.875Z,11.79
2019-03-19T17:57:45.272Z,11.79
2019-03-19T18:00:18.901Z,11.77
2019-03-19T18:02:48.243Z,11.69
2019-03-19T18:05:17.627Z,11.69
2019-03-19T18:07:46.961Z,11.63
2019-03-19T18:10:16.287Z,11.59
2019-03-19T18:12:45.637Z,11.54
2019-03-19T18:15:15.075Z,11.55
2019-03-19T18:17:44.450Z,11.55
2019-03-19T18:20:13.989Z,11.50
2019-03-19T18:22:43.343Z,11.47
2019-03-19T18:25:12.850Z,11.47
2019-03-19T18:27:42.205Z,11.44
2019-03-19T18:30:12.617Z,11.39
2019-03-19T18:32:42.170Z,11.37
2019-03-19T18:35:11.552Z,11.35
2019-03-19T18:37:40.905Z,11.31
2019-03-19T18:40:10.279Z,11.29
2019-03-19T18:42:39.605Z,11.20
2019-03-19T18:45:09.007Z,11.20
2019-03-19T18:47:38.335Z,11.16
2019-03-19T18:50:10.137Z,11.14
2019-03-19T18:52:39.493Z,11.12
2019-03-19T18:55:09.042Z,11.11
2019-03-19T18:57:38.489Z,11.07
2019-03-19T19:00:11.371Z,11.06
2019-03-19T19:02:49.157Z,11.06
2019-03-19T19:05:12.206Z,11.03
2019-03-19T19:07:41.548Z,11.04
2019-03-19T19:10:13.981Z,11.05
2019-03-19T19:12:43.570Z,11.07
2019-03-19T19:15:14.308Z,11.07
2019-03-19T19:17:43.726Z,11.09
2019-03-19T19:20:13.209Z,11.07
2019-03-19T19:22:42.588Z,11.07
2019-03-19T19:25:15.534Z,11.05
2019-03-19T19:27:44.887Z,11.05
2019-03-19T19:30:18.487Z,11.04
2019-03-19T19:32:47.829Z,11.04
2019-03-19T19:35:17.335Z,11.05
2019-03-19T19:37:46.673Z,11.05
2019-03-19T19:40:16.069Z,11.06
2019-03-19T19:42:45.738Z,11.06
2019-03-19T19:45:15.140Z,11.08
2019-03-19T19:47:44.474Z,11.08
2019-03-19T19:50:14.654Z,11.10
2019-03-19T19:52:44.162Z,11.10
2019-03-19T19:55:14.529Z,11.11
2019-03-19T19:57:44.183Z,11.10
2019-03-19T20:00:15.743Z,11.10
2019-03-19T20:02:45.316Z,11.10
2019-03-19T20:05:15.285Z,11.10
2019-03-19T20:07:44.754Z,11.10
2019-03-19T20:10:15.930Z,11.10
2019-03-19T20:12:45.258Z,11.11
2019-03-19T20:15:14.839Z,11.12
2019-03-19T20:17:44.177Z,11.12
2019-03-19T20:20:15.076Z,11.12
2019-03-19T20:22:44.941Z,11.10
2019-03-19T20:25:14.544Z,11.10
2019-03-19T20:27:43.901Z,11.10
2019-03-19T20:30:15.600Z,11.10
2019-03-19T20:32:44.940Z,11.08
2019-03-19T20:35:22.200Z,11.07
2019-03-19T20:37:51.532Z,11.08
2019-03-19T20:40:21.102Z,11.08
2019-03-19T20:42:50.420Z,11.07
2019-03-19T20:45:19.880Z,11.07
2019-03-19T20:47:49.208Z,11.05
2019-03-19T20:50:21.278Z,11.03
2019-03-19T20:52:52.701Z,11.02
2019-03-19T20:55:22.028Z,11.02
2019-03-19T20:57:51.374Z,11.02
2019-03-19T21:00:20.713Z,11.01
2019-03-19T21:02:50.191Z,11.00
2019-03-19T21:05:19.584Z,11.00
2019-03-19T21:07:48.897Z,10.99
2019-03-19T21:10:19.029Z,10.99
2019-03-19T21:12:48.614Z,10.97
2019-03-19T21:15:19.581Z,10.95
2019-03-19T21:17:49.252Z,10.94
2019-03-19T21:20:18.590Z,10.94
2019-03-19T21:22:47.933Z,10.93
2019-03-19T21:25:17.285Z,10.92
2019-03-19T21:27:46.798Z,10.93
2019-03-19T21:30:16.732Z,10.91
2019-03-19T21:32:46.099Z,10.91
2019-03-19T21:35:17.003Z,10.90
2019-03-19T21:37:46.349Z,10.91
2019-03-19T21:40:15.762Z,10.87
2019-03-19T21:42:45.865Z,10.88
2019-03-19T21:45:15.544Z,10.88
2019-03-19T21:47:44.865Z,10.88
2019-03-19T21:50:14.918Z,10.89
2019-03-19T21:52:44.479Z,10.89
2019-03-19T21:55:16.620Z,10.89
2019-03-19T21:57:45.973Z,10.91
2019-03-19T22:00:16.454Z,10.88
2019-03-19T22:02:45.805Z,10.88
2019-03-19T22:05:16.939Z,10.91
2019-03-19T22:07:46.409Z,10.91
2019-03-19T22:10:15.825Z,10.91
2019-03-19T22:12:45.132Z,10.91
2019-03-19T22:15:16.165Z,10.88
2019-03-19T22:17:45.494Z,10.88
2019-03-19T22:20:15.460Z,10.90
2019-03-19T22:22:44.992Z,10.90
2019-03-19T22:25:14.400Z,10.90
2019-03-19T22:27:43.786Z,10.90
2019-03-19T22:30:14.799Z,10.89
2019-03-19T22:32:44.225Z,10.88
2019-03-19T22:35:13.643Z,10.88
2019-03-19T22:37:43.185Z,10.87
2019-03-19T22:40:13.570Z,10.87
2019-03-19T22:42:43.037Z,10.87
2019-03-19T22:45:13.732Z,10.87
2019-03-19T22:47:43.090Z,10.87
2019-03-19T22:50:13.119Z,10.89
2019-03-19T22:52:42.460Z,10.88
2019-03-19T22:55:11.844Z,10.88
2019-03-19T22:57:43.210Z,10.87
2019-03-19T23:00:31.819Z,10.86
2019-03-19T23:03:02.246Z,10.87
2019-03-19T23:05:31.565Z,10.87
2019-03-19T23:08:00.910Z,10.86
2019-03-19T23:10:30.221Z,10.87
2019-03-19T23:12:59.574Z,10.87
2019-03-19T23:15:29.013Z,10.87
2019-03-19T23:18:00.625Z,10.88
2019-03-19T23:20:29.971Z,10.87
2019-03-19T23:22:59.332Z,10.89
2019-03-19T23:25:28.692Z,10.86
2019-03-19T23:27:58.042Z,10.86
2019-03-19T23:30:27.492Z,10.86
2019-03-19T23:32:56.815Z,10.85
2019-03-19T23:35:26.144Z,10.84
2019-03-19T23:37:55.537Z,10.85
2019-03-19T23:40:24.880Z,10.84
2019-03-19T23:42:54.258Z,10.84
2019-03-19T23:45:24.533Z,10.84
2019-03-19T23:47:53.882Z,10.83
2019-03-19T23:50:23.226Z,10.83
2019-03-19T23:52:52.559Z,10.83
2019-03-19T23:55:23.957Z,10.84
2019-03-19T23:57:53.295Z,10.85
